Time;durP1;ratioP1;P1;durP2;ratioP2;P2;SDS_P1;SDS_P2;PMS_P1;PMS_P2;Temp;Humidity;BMP_temperature;BMP_pressure;BME280_temperature;BME280_humidity;BME280_pressure;Samples;Min_cycle;Max_cycle;Signal;HPM_P1;HPM_P2
2023/07/24 00:02:07;;;;;;;9.30;8.02;;;21.50;99.90;;;;;;5042857;28;20198;-78
2023/07/24 00:04:36;;;;;;;8.60;7.68;;;21.50;99.90;;;;;;5039067;28;20257;-78
2023/07/24 00:07:03;;;;;;;9.35;8.32;;;21.50;99.90;;;;;;5045838;28;20208;-78
2023/07/24 00:09:30;;;;;;;8.10;7.30;;;21.40;99.90;;;;;;5040445;28;20223;-78
2023/07/24 00:11:57;;;;;;;8.23;7.43;;;21.40;99.90;;;;;;5041150;28;20207;-77
2023/07/24 00:14:24;;;;;;;9.00;8.10;;;21.40;99.90;;;;;;5039536;28;20203;-77
2023/07/24 00:16:51;;;;;;;8.38;7.57;;;21.40;99.90;;;;;;5040625;28;20207;-76
2023/07/24 00:19:18;;;;;;;9.02;7.80;;;21.40;99.90;;;;;;5037551;28;20622;-77
2023/07/24 00:21:46;;;;;;;9.02;7.57;;;21.30;99.90;;;;;;5040966;28;20278;-76
2023/07/24 00:24:13;;;;;;;9.85;8.38;;;21.20;99.90;;;;;;5041551;28;20199;-77
2023/07/24 00:26:40;;;;;;;9.00;7.90;;;21.20;99.90;;;;;;5040849;28;20272;-77
2023/07/24 00:29:07;;;;;;;8.75;7.85;;;21.20;99.90;;;;;;5038723;28;20207;-76
2023/07/24 00:31:34;;;;;;;8.00;7.18;;;21.20;99.90;;;;;;5040771;28;20306;-78
2023/07/24 00:34:01;;;;;;;8.93;7.65;;;21.20;99.90;;;;;;5038550;28;20592;-78
2023/07/24 00:36:28;;;;;;;9.32;7.40;;;21.20;99.90;;;;;;5039189;28;20260;-77
2023/07/24 00:38:56;;;;;;;8.23;7.43;;;21.20;99.90;;;;;;5037813;28;20327;-75
2023/07/24 00:41:23;;;;;;;8.80;7.90;;;21.20;99.90;;;;;;5043003;28;20276;-76
2023/07/24 00:43:50;;;;;;;8.60;7.70;;;21.20;99.90;;;;;;5033325;28;20701;-77
2023/07/24 00:46:17;;;;;;;7.68;6.95;;;21.30;99.90;;;;;;5039496;28;20230;-77
2023/07/24 00:48:44;;;;;;;8.70;7.78;;;21.30;99.90;;;;;;5037225;28;20257;-77
2023/07/24 00:51:11;;;;;;;8.68;7.78;;;21.30;99.90;;;;;;5043331;28;20219;-78
2023/07/24 00:53:38;;;;;;;7.60;6.80;;;21.30;99.90;;;;;;5044323;28;20290;-77
2023/07/24 00:56:07;;;;;;;9.38;8.38;;;21.20;99.90;;;;;;5040382;28;20215;-77
2023/07/24 00:58:37;;;;;;;9.88;7.82;;;21.30;99.90;;;;;;5038146;28;20285;-75
2023/07/24 01:01:05;;;;;;;9.43;8.43;;;21.20;99.90;;;;;;5038288;28;20313;-77
2023/07/24 01:03:36;;;;;;;8.73;7.82;;;21.20;99.90;;;;;;5039690;28;20273;-76
2023/07/24 01:06:03;;;;;;;8.15;7.35;;;21.20;99.90;;;;;;5042482;28;20207;-76
2023/07/24 01:08:30;;;;;;;8.48;7.57;;;21.20;99.90;;;;;;5040365;28;20265;-77
2023/07/24 01:11:02;;;;;;;8.05;7.25;;;21.20;99.90;;;;;;5040476;28;20306;-77
2023/07/24 01:13:37;;;;;;;8.38;7.47;;;21.20;99.90;;;;;;5043824;28;20224;-77
2023/07/24 01:16:08;;;;;;;8.68;7.78;;;21.20;99.90;;;;;;5039964;28;20313;-77
2023/07/24 01:18:38;;;;;;;8.18;6.90;;;21.20;99.90;;;;;;5040437;28;20612;-77
2023/07/24 01:21:09;;;;;;;9.40;8.38;;;21.20;99.90;;;;;;5041879;28;20223;-77
2023/07/24 01:23:45;;;;;;;8.73;7.72;;;21.20;99.90;;;;;;5040324;28;20226;-77
2023/07/24 01:26:14;;;;;;;10.18;8.23;;;21.20;99.90;;;;;;5042000;28;20215;-77
2023/07/24 01:28:42;;;;;;;9.82;7.80;;;21.10;99.90;;;;;;5040413;28;20195;-77
2023/07/24 01:31:09;;;;;;;8.80;7.90;;;21.20;99.90;;;;;;5045776;28;20218;-77
2023/07/24 01:33:37;;;;;;;9.13;7.70;;;21.10;99.90;;;;;;5036917;28;20211;-76
2023/07/24 01:36:05;;;;;;;8.48;7.68;;;21.20;99.90;;;;;;5043026;28;20227;-77
2023/07/24 01:38:35;;;;;;;8.85;7.90;;;21.10;99.90;;;;;;5037683;28;20204;-78
2023/07/24 01:41:03;;;;;;;8.35;7.32;;;21.10;99.90;;;;;;5042082;28;20243;-77
2023/07/24 01:43:32;;;;;;;8.98;7.93;;;21.00;99.90;;;;;;5043265;28;20200;-77
2023/07/24 01:45:59;;;;;;;9.13;8.23;;;21.00;99.90;;;;;;5036241;28;20200;-77
2023/07/24 01:48:26;;;;;;;8.10;7.28;;;21.00;99.90;;;;;;5042516;28;20195;-77
2023/07/24 01:50:53;;;;;;;8.75;7.85;;;20.90;99.90;;;;;;5040223;28;20693;-77
2023/07/24 01:53:19;;;;;;;8.68;7.47;;;20.90;99.90;;;;;;5035805;28;20223;-77
2023/07/24 01:55:46;;;;;;;8.02;7.22;;;20.90;99.90;;;;;;5039943;28;20709;-78
2023/07/24 01:58:13;;;;;;;8.05;7.18;;;20.90;99.90;;;;;;5037641;28;20294;-77
2023/07/24 02:00:42;;;;;;;9.30;8.07;;;20.80;99.90;;;;;;5037088;28;20305;-77
2023/07/24 02:03:09;;;;;;;8.40;7.50;;;20.80;99.90;;;;;;5039239;28;20272;-76
2023/07/24 02:05:36;;;;;;;8.50;7.63;;;20.80;99.90;;;;;;5036900;28;20741;-77
2023/07/24 02:08:03;;;;;;;8.60;7.32;;;20.80;99.90;;;;;;5039670;28;20306;-77
2023/07/24 02:10:30;;;;;;;8.75;7.68;;;20.80;99.90;;;;;;5036253;28;20314;-77
2023/07/24 02:12:57;;;;;;;8.50;7.60;;;20.80;99.90;;;;;;5040062;28;20665;-76
2023/07/24 02:15:24;;;;;;;8.60;7.65;;;20.80;99.90;;;;;;5041859;28;20218;-77
2023/07/24 02:17:52;;;;;;;8.18;7.38;;;20.80;99.90;;;;;;5040913;28;20199;-77
2023/07/24 02:20:19;;;;;;;8.77;7.88;;;20.80;99.90;;;;;;5040719;28;20259;-76
2023/07/24 02:22:46;;;;;;;8.57;7.68;;;20.70;99.90;;;;;;5041385;28;20266;-76
2023/07/24 02:25:13;;;;;;;8.35;7.40;;;20.70;99.90;;;;;;5045052;28;20237;-77
2023/07/24 02:27:40;;;;;;;9.43;8.18;;;20.70;99.90;;;;;;5038797;28;20284;-77
2023/07/24 02:30:08;;;;;;;8.18;7.38;;;20.70;99.90;;;;;;5036150;28;20310;-76
2023/07/24 02:32:35;;;;;;;8.85;7.95;;;20.70;99.90;;;;;;5042317;28;20222;-76
2023/07/24 02:35:03;;;;;;;8.32;7.43;;;20.70;99.90;;;;;;5039962;28;20235;-76
2023/07/24 02:37:30;;;;;;;8.80;7.32;;;20.60;99.90;;;;;;5037338;28;20238;-76
2023/07/24 02:39:57;;;;;;;8.43;7.55;;;20.60;99.90;;;;;;5039126;28;20323;-76
2023/07/24 02:42:24;;;;;;;8.07;7.15;;;20.60;99.90;;;;;;5043779;28;20221;-75
2023/07/24 02:44:53;;;;;;;9.13;7.60;;;20.60;99.90;;;;;;5039507;28;20298;-77
2023/07/24 02:47:19;;;;;;;9.13;7.68;;;20.60;99.90;;;;;;5037917;28;20204;-77
2023/07/24 02:49:46;;;;;;;8.13;7.32;;;20.70;99.90;;;;;;5036752;28;20731;-76
2023/07/24 02:52:15;;;;;;;8.70;7.80;;;20.70;99.90;;;;;;5042074;28;20314;-78
2023/07/24 02:54:41;;;;;;;8.18;7.32;;;20.80;99.90;;;;;;5037593;28;20195;-78
2023/07/24 02:57:09;;;;;;;8.82;7.55;;;20.80;99.90;;;;;;5039113;28;20287;-77
2023/07/24 02:59:35;;;;;;;8.75;7.85;;;20.80;99.90;;;;;;5041227;28;20317;-77
2023/07/24 03:02:02;;;;;;;8.55;7.30;;;20.80;99.90;;;;;;5040496;28;20678;-78
2023/07/24 03:04:30;;;;;;;8.23;7.43;;;20.80;99.90;;;;;;5040925;28;20227;-77
2023/07/24 03:06:57;;;;;;;7.63;6.80;;;20.80;99.90;;;;;;5045467;28;22112;-77
2023/07/24 03:09:26;;;;;;;7.70;6.90;;;20.80;99.90;;;;;;5040951;28;20330;-77
2023/07/24 03:11:53;;;;;;;7.63;6.90;;;20.70;99.90;;;;;;5040943;28;20276;-77
2023/07/24 03:14:19;;;;;;;8.77;7.88;;;20.70;99.90;;;;;;5042621;28;20245;-76
2023/07/24 03:16:46;;;;;;;7.90;7.10;;;20.70;99.90;;;;;;5041491;28;20637;-77
2023/07/24 03:19:13;;;;;;;8.38;7.57;;;20.70;99.90;;;;;;5038253;28;20258;-78
2023/07/24 03:21:40;;;;;;;7.78;6.97;;;20.80;99.90;;;;;;5035990;28;20644;-77
2023/07/24 03:24:07;;;;;;;7.82;7.03;;;20.80;99.90;;;;;;5038875;28;20198;-76
2023/07/24 03:26:35;;;;;;;8.50;7.38;;;20.90;99.90;;;;;;5042544;28;20261;-77
2023/07/24 03:29:02;;;;;;;8.52;7.57;;;20.90;99.90;;;;;;5034064;28;20227;-77
2023/07/24 03:31:29;;;;;;;8.95;7.22;;;20.90;99.90;;;;;;5037889;28;20265;-76
2023/07/24 03:33:56;;;;;;;8.57;7.78;;;20.90;99.90;;;;;;5044445;28;20717;-77
2023/07/24 03:36:23;;;;;;;8.20;7.40;;;20.90;99.90;;;;;;5044405;28;20249;-76
2023/07/24 03:38:50;;;;;;;7.82;6.97;;;20.80;99.90;;;;;;5041651;28;20203;-78
2023/07/24 03:41:17;;;;;;;7.95;7.18;;;20.90;99.90;;;;;;5038958;28;20223;-77
2023/07/24 03:43:45;;;;;;;8.70;7.82;;;20.80;99.90;;;;;;5037411;28;20286;-76
2023/07/24 03:46:12;;;;;;;8.45;7.28;;;20.80;99.90;;;;;;5042168;28;20200;-77
2023/07/24 03:48:39;;;;;;;7.82;6.97;;;20.80;99.90;;;;;;5042715;28;20234;-77
2023/07/24 03:51:07;;;;;;;7.65;6.85;;;20.80;99.90;;;;;;5035818;28;20314;-77
2023/07/24 03:53:34;;;;;;;7.88;7.07;;;20.80;99.90;;;;;;5040977;28;20218;-77
2023/07/24 03:56:01;;;;;;;8.40;7.47;;;20.90;99.90;;;;;;5040279;28;20199;-76
2023/07/24 03:58:28;;;;;;;8.77;7.88;;;20.90;99.90;;;;;;5043225;28;20230;-77
2023/07/24 04:00:56;;;;;;;8.48;7.57;;;20.90;99.90;;;;;;5038855;28;20219;-77
2023/07/24 04:03:23;;;;;;;9.10;7.95;;;20.90;99.90;;;;;;5040834;28;20196;-77
2023/07/24 04:05:50;;;;;;;8.85;7.72;;;20.90;99.90;;;;;;5042989;28;20238;-77
2023/07/24 04:08:17;;;;;;;8.85;7.95;;;20.90;99.90;;;;;;5042788;28;20280;-78
2023/07/24 04:10:44;;;;;;;10.65;8.05;;;20.80;99.90;;;;;;5037225;28;20598;-76
2023/07/24 04:13:11;;;;;;;8.60;7.70;;;20.80;99.90;;;;;;5041406;28;20273;-78
2023/07/24 04:15:38;;;;;;;8.70;7.80;;;20.80;99.90;;;;;;5039245;28;20211;-77
2023/07/24 04:18:06;;;;;;;9.60;8.60;;;20.80;99.90;;;;;;5038668;28;22003;-78
2023/07/24 04:20:33;;;;;;;9.00;8.10;;;20.80;99.90;;;;;;5042153;28;20842;-76
2023/07/24 04:23:00;;;;;;;9.70;8.30;;;20.80;99.90;;;;;;5040983;28;20208;-76
2023/07/24 04:25:27;;;;;;;8.18;7.30;;;20.80;99.90;;;;;;5038483;28;20203;-78
2023/07/24 04:27:54;;;;;;;9.40;7.93;;;20.80;99.90;;;;;;5039831;28;20718;-77
2023/07/24 04:30:21;;;;;;;9.25;8.15;;;20.80;99.90;;;;;;5039443;28;20294;-77
2023/07/24 04:32:48;;;;;;;8.75;7.85;;;20.80;99.90;;;;;;5036375;28;20215;-76
2023/07/24 04:35:16;;;;;;;9.55;8.15;;;20.80;99.90;;;;;;5041186;28;20285;-77
2023/07/24 04:37:43;;;;;;;9.32;8.02;;;20.90;99.90;;;;;;5039878;28;20295;-77
2023/07/24 04:40:11;;;;;;;9.43;7.95;;;21.00;99.90;;;;;;5040088;28;20227;-78
2023/07/24 04:42:38;;;;;;;9.52;8.52;;;21.00;99.90;;;;;;5041361;28;20203;-78
2023/07/24 04:45:05;;;;;;;9.20;8.25;;;21.10;99.90;;;;;;5041094;28;20194;-78
2023/07/24 04:47:32;;;;;;;9.70;8.70;;;21.00;99.90;;;;;;5041907;28;20264;-77
2023/07/24 04:49:59;;;;;;;10.40;8.88;;;21.00;99.90;;;;;;5038640;28;20227;-77
2023/07/24 04:52:28;;;;;;;9.63;8.63;;;21.00;99.90;;;;;;5038956;28;20204;-78
2023/07/24 04:54:54;;;;;;;9.27;8.20;;;20.90;99.90;;;;;;5041507;28;20195;-77
2023/07/24 04:57:21;;;;;;;8.90;8.00;;;21.00;99.90;;;;;;5039892;28;20686;-75
2023/07/24 04:59:48;;;;;;;8.98;8.07;;;21.00;99.90;;;;;;5043882;28;20246;-77
2023/07/24 05:02:15;;;;;;;8.90;7.68;;;21.00;99.90;;;;;;5038593;28;20203;-76
2023/07/24 05:04:42;;;;;;;9.93;8.77;;;21.00;99.90;;;;;;5032953;28;20696;-77
2023/07/24 05:07:09;;;;;;;9.10;8.15;;;21.10;99.90;;;;;;5035411;28;20207;-75
2023/07/24 05:09:37;;;;;;;9.70;8.70;;;21.10;99.90;;;;;;5038936;28;20226;-76
2023/07/24 05:12:05;;;;;;;10.05;8.50;;;21.10;99.90;;;;;;5036788;28;20296;-77
2023/07/24 05:14:32;;;;;;;9.77;8.38;;;21.10;99.90;;;;;;5039218;28;20298;-76
2023/07/24 05:16:59;;;;;;;8.82;7.90;;;21.20;99.90;;;;;;5041126;28;20264;-76
2023/07/24 05:19:26;;;;;;;9.32;8.30;;;21.30;99.90;;;;;;5035907;28;20704;-76
2023/07/24 05:21:53;;;;;;;9.70;8.70;;;21.30;99.90;;;;;;5040946;28;20260;-76
2023/07/24 05:24:20;;;;;;;10.88;9.18;;;21.30;99.90;;;;;;5031575;28;21055;-76
2023/07/24 05:26:48;;;;;;;9.35;8.45;;;21.40;99.90;;;;;;5033285;28;20231;-79
2023/07/24 05:29:15;;;;;;;9.35;8.38;;;21.40;99.90;;;;;;5036338;28;20301;-77
2023/07/24 05:31:42;;;;;;;10.68;9.55;;;21.30;99.90;;;;;;5035799;28;20257;-77
2023/07/24 05:34:09;;;;;;;11.40;9.68;;;21.20;99.90;;;;;;5032969;28;20840;-76
2023/07/24 05:36:36;;;;;;;11.35;9.98;;;21.10;99.90;;;;;;5035380;28;20241;-78
2023/07/24 05:39:03;;;;;;;11.23;10.00;;;20.90;99.90;;;;;;5038967;28;20285;-77
2023/07/24 05:41:30;;;;;;;10.32;8.43;;;20.80;99.90;;;;;;5037572;28;20257;-77
2023/07/24 05:43:58;;;;;;;10.13;9.13;;;21.00;99.90;;;;;;5042620;28;20195;-78
2023/07/24 05:46:25;;;;;;;9.18;8.27;;;21.10;99.90;;;;;;5048053;28;20222;-76
2023/07/24 05:48:52;;;;;;;12.43;9.20;;;21.20;99.90;;;;;;5043090;28;20891;-76
2023/07/24 05:51:19;;;;;;;9.77;8.77;;;21.30;99.90;;;;;;5043241;28;20231;-76
2023/07/24 05:53:46;;;;;;;9.82;8.82;;;21.40;99.90;;;;;;5042775;28;20653;-76
2023/07/24 05:56:13;;;;;;;9.65;8.70;;;21.40;99.90;;;;;;5044990;28;20684;-77
2023/07/24 05:58:40;;;;;;;10.32;8.98;;;21.40;99.90;;;;;;5044756;28;20239;-77
2023/07/24 06:01:10;;;;;;;10.40;8.90;;;21.40;99.90;;;;;;5050421;28;20705;-76
2023/07/24 06:03:38;;;;;;;10.25;9.15;;;21.40;99.90;;;;;;5041133;28;20191;-77
2023/07/24 06:06:05;;;;;;;9.70;8.48;;;21.40;99.90;;;;;;5047422;28;20206;-76
2023/07/24 06:08:32;;;;;;;10.13;8.73;;;21.40;99.90;;;;;;5043044;28;20728;-75
2023/07/24 06:10:59;;;;;;;10.52;9.45;;;21.60;99.90;;;;;;5045507;28;20211;-77
2023/07/24 06:13:26;;;;;;;11.60;10.40;;;21.70;99.90;;;;;;5044342;28;20218;-76
2023/07/24 06:15:53;;;;;;;11.13;9.85;;;21.80;99.90;;;;;;5042638;28;20199;-77
2023/07/24 06:18:21;;;;;;;10.70;9.48;;;21.90;99.90;;;;;;5035313;28;20241;-77
2023/07/24 06:20:52;;;;;;;10.75;9.65;;;21.90;99.90;;;;;;5041592;28;20215;-77
2023/07/24 06:23:19;;;;;;;12.20;10.50;;;21.70;99.90;;;;;;5040758;28;20235;-79
2023/07/24 06:25:46;;;;;;;13.07;11.02;;;21.60;99.90;;;;;;5044920;28;20233;-76
2023/07/24 06:28:13;;;;;;;11.95;10.13;;;21.60;99.90;;;;;;5041500;28;20558;-77
2023/07/24 06:30:40;;;;;;;11.52;10.35;;;21.60;99.90;;;;;;5046310;28;20222;-78
2023/07/24 06:33:07;;;;;;;10.55;9.45;;;21.70;99.90;;;;;;5035624;28;20245;-77
2023/07/24 06:35:36;;;;;;;12.15;9.80;;;21.80;99.90;;;;;;5048474;28;20552;-77
2023/07/24 06:38:03;;;;;;;11.35;9.98;;;22.10;99.90;;;;;;5040561;28;20246;-77
2023/07/24 06:40:30;;;;;;;11.80;9.73;;;22.20;99.90;;;;;;5040932;28;20280;-77
2023/07/24 06:42:57;;;;;;;11.13;9.93;;;22.30;99.90;;;;;;5041199;28;20280;-76
2023/07/24 06:45:24;;;;;;;11.45;10.25;;;22.30;99.90;;;;;;5040887;28;20681;-76
2023/07/24 06:47:51;;;;;;;12.20;11.00;;;22.30;99.90;;;;;;5035967;28;20208;-76
2023/07/24 06:50:18;;;;;;;11.18;9.93;;;22.20;99.90;;;;;;5032995;28;20222;-76
2023/07/24 06:52:46;;;;;;;11.98;9.63;;;22.30;99.90;;;;;;5043704;28;20195;-77
2023/07/24 06:55:13;;;;;;;13.20;10.70;;;22.30;99.90;;;;;;5048890;28;20616;-76
2023/07/24 06:57:40;;;;;;;11.27;10.07;;;22.30;99.90;;;;;;5043901;28;20558;-78
2023/07/24 07:00:11;;;;;;;12.68;10.95;;;22.30;99.90;;;;;;5038307;28;20226;-76
2023/07/24 07:02:38;;;;;;;11.48;10.27;;;22.50;99.90;;;;;;5038750;28;20216;-77
2023/07/24 07:05:05;;;;;;;11.75;10.13;;;22.80;99.90;;;;;;5042446;28;20937;-78
2023/07/24 07:07:33;;;;;;;10.85;9.38;;;22.70;99.90;;;;;;5038744;28;20674;-76
2023/07/24 07:10:01;;;;;;;10.70;9.38;;;22.60;99.90;;;;;;5044428;28;20259;-77
2023/07/24 07:12:28;;;;;;;13.32;10.70;;;22.40;99.90;;;;;;5040514;28;20242;-77
2023/07/24 07:14:55;;;;;;;12.90;10.55;;;22.30;99.90;;;;;;5042914;28;20215;-77
2023/07/24 07:17:22;;;;;;;11.25;9.75;;;22.10;99.90;;;;;;5041453;28;20675;-77
2023/07/24 07:19:49;;;;;;;11.27;10.10;;;22.00;99.90;;;;;;5041836;28;20223;-77
2023/07/24 07:22:16;;;;;;;11.88;9.93;;;21.80;99.90;;;;;;5035130;28;20261;-76
2023/07/24 07:24:43;;;;;;;11.68;10.13;;;21.70;99.90;;;;;;5040315;28;20191;-76
2023/07/24 07:27:11;;;;;;;11.77;10.52;;;21.80;99.90;;;;;;5037485;28;20249;-77
2023/07/24 07:29:38;;;;;;;13.30;10.95;;;21.90;99.90;;;;;;5037235;28;20227;-77
2023/07/24 07:32:09;;;;;;;13.13;11.75;;;22.00;99.90;;;;;;5042517;28;20720;-77
2023/07/24 07:34:38;;;;;;;14.02;11.70;;;22.00;99.90;;;;;;5041097;28;20273;-77
2023/07/24 07:37:05;;;;;;;13.45;12.02;;;22.10;99.90;;;;;;5043604;28;20199;-78
2023/07/24 07:39:33;;;;;;;14.48;11.38;;;22.00;99.90;;;;;;5041581;28;20215;-75
2023/07/24 07:42:00;;;;;;;14.15;12.05;;;22.00;99.90;;;;;;5041476;28;20285;-77
2023/07/24 07:44:28;;;;;;;13.18;11.85;;;22.00;99.90;;;;;;5039480;28;20207;-77
2023/07/24 07:46:55;;;;;;;13.98;11.45;;;22.10;99.90;;;;;;5047513;28;20226;-77
2023/07/24 07:49:22;;;;;;;12.73;11.25;;;22.10;99.90;;;;;;5042375;28;20234;-77
2023/07/24 07:51:49;;;;;;;13.38;11.85;;;22.10;99.90;;;;;;5040707;28;20214;-77
2023/07/24 07:54:16;;;;;;;14.82;11.90;;;22.20;99.90;;;;;;5037507;28;20215;-78
2023/07/24 07:56:43;;;;;;;12.50;11.20;;;22.30;99.90;;;;;;5044687;28;20719;-76
2023/07/24 07:59:10;;;;;;;12.48;11.27;;;22.50;99.90;;;;;;5040669;28;20198;-76
2023/07/24 08:01:40;;;;;;;10.95;9.95;;;22.70;99.90;;;;;;5037089;28;20298;-79
2023/07/24 08:04:07;;;;;;;11.27;9.70;;;23.20;99.90;;;;;;5040764;28;20783;-77
2023/07/24 08:06:33;;;;;;;12.18;10.88;;;23.60;99.90;;;;;;5042336;28;20227;-79
2023/07/24 08:09:00;;;;;;;11.85;10.23;;;23.90;99.90;;;;;;5044540;28;20195;-79
2023/07/24 08:11:27;;;;;;;13.10;11.07;;;24.50;99.90;;;;;;5041088;28;20832;-78
2023/07/24 08:13:54;;;;;;;13.85;10.68;;;25.00;99.90;;;;;;5032989;28;20224;-77
2023/07/24 08:16:21;;;;;;;13.48;11.13;;;25.50;99.90;;;;;;5033093;28;20747;-75
2023/07/24 08:18:49;;;;;;;16.42;12.50;;;25.20;99.90;;;;;;5031750;28;20231;-76
2023/07/24 08:21:17;;;;;;;12.27;10.98;;;25.00;99.90;;;;;;5034038;28;20326;-75
2023/07/24 08:23:43;;;;;;;14.18;12.35;;;25.00;99.90;;;;;;5035618;28;20290;-77
2023/07/24 08:26:11;;;;;;;15.38;11.52;;;25.10;99.90;;;;;;5027047;28;20200;-76
2023/07/24 08:28:41;;;;;;;13.30;11.88;;;25.20;99.90;;;;;;5034793;28;20201;-75
2023/07/24 08:31:09;;;;;;;15.85;12.90;;;25.00;99.90;;;;;;5032664;28;20223;-74
2023/07/24 08:33:36;;;;;;;14.75;12.93;;;24.60;99.90;;;;;;5026976;28;20298;-75
2023/07/24 08:36:06;;;;;;;13.60;12.15;;;24.30;99.90;;;;;;5030531;28;20719;-76
2023/07/24 08:38:33;;;;;;;16.40;13.65;;;24.20;99.90;;;;;;5032772;28;20207;-74
2023/07/24 08:41:04;;;;;;;16.38;13.45;;;24.10;99.90;;;;;;5029713;28;20211;-75
2023/07/24 08:43:32;;;;;;;15.98;13.05;;;23.90;99.90;;;;;;5032743;28;20290;-74
2023/07/24 08:46:00;;;;;;;14.43;12.07;;;23.70;99.90;;;;;;5033794;28;20716;-75
2023/07/24 08:48:30;;;;;;;15.27;13.23;;;23.30;99.90;;;;;;5030940;28;20199;-76
2023/07/24 08:50:58;;;;;;;13.48;11.18;;;23.00;99.90;;;;;;5028731;28;20223;-73
2023/07/24 08:53:27;;;;;;;12.88;11.57;;;22.60;99.90;;;;;;5028448;28;20200;-77
2023/07/24 08:55:55;;;;;;;13.85;12.40;;;22.30;99.90;;;;;;5029075;28;20214;-76
2023/07/24 08:58:24;;;;;;;12.15;10.85;;;22.10;99.90;;;;;;5028824;28;20213;-76
2023/07/24 09:00:52;;;;;;;11.50;10.32;;;22.00;99.90;;;;;;5030159;28;20802;-76
2023/07/24 09:03:19;;;;;;;11.27;10.18;;;21.90;99.90;;;;;;5025834;28;20199;-74
2023/07/24 09:05:46;;;;;;;10.63;9.38;;;21.80;99.90;;;;;;5032295;28;20200;-76
2023/07/24 09:08:14;;;;;;;10.98;9.88;;;21.80;99.90;;;;;;5026621;28;20214;-75
2023/07/24 09:10:42;;;;;;;11.55;10.20;;;21.70;99.90;;;;;;5030353;28;20314;-76
2023/07/24 09:13:12;;;;;;;10.88;9.77;;;21.70;99.90;;;;;;5034963;28;20639;-76
2023/07/24 09:15:43;;;;;;;11.10;9.75;;;21.80;99.90;;;;;;5036168;28;20674;-75
2023/07/24 09:18:10;;;;;;;10.80;9.20;;;22.00;99.90;;;;;;5039201;28;20272;-76
2023/07/24 09:20:41;;;;;;;10.05;9.05;;;22.10;99.90;;;;;;5033203;28;20258;-77
2023/07/24 09:23:09;;;;;;;12.52;9.60;;;22.40;99.90;;;;;;5035140;28;20198;-75
2023/07/24 09:25:38;;;;;;;12.25;10.32;;;22.40;99.90;;;;;;5031956;28;20298;-75
2023/07/24 09:28:14;;;;;;;11.10;9.98;;;22.30;99.90;;;;;;5040652;28;20199;-77
2023/07/24 09:30:43;;;;;;;11.80;9.73;;;22.40;99.90;;;;;;5039658;28;20598;-78
2023/07/24 09:33:10;;;;;;;9.55;8.65;;;22.60;99.90;;;;;;5038465;28;20682;-77
2023/07/24 09:35:37;;;;;;;10.40;9.30;;;22.90;99.90;;;;;;5036320;28;20733;-77
2023/07/24 09:38:06;;;;;;;12.20;10.18;;;23.10;99.90;;;;;;5036207;28;20199;-76
2023/07/24 09:40:40;;;;;;;11.10;9.95;;;23.10;99.90;;;;;;5039764;28;20220;-76
2023/07/24 09:43:19;;;;;;;11.15;10.05;;;22.90;99.90;;;;;;5034147;28;20198;-75
2023/07/24 09:45:46;;;;;;;15.68;11.75;;;22.70;99.90;;;;;;5038299;28;20800;-75
2023/07/24 09:48:15;;;;;;;13.77;10.98;;;22.60;99.90;;;;;;5035602;28;20365;-76
2023/07/24 09:57:29;;;;;;;10.15;9.15;;;22.30;99.90;;;;;;5026691;28;20269;-75
2023/07/24 09:59:58;;;;;;;8.82;7.93;;;22.40;99.90;;;;;;5032018;28;20250;-76
2023/07/24 10:02:26;;;;;;;10.38;9.27;;;22.40;99.90;;;;;;5035315;28;20198;-75
2023/07/24 10:04:53;;;;;;;11.27;9.30;;;22.30;99.90;;;;;;5037636;28;20257;-76
2023/07/24 10:07:22;;;;;;;9.65;8.65;;;22.20;99.90;;;;;;5032963;28;20226;-76
2023/07/24 10:09:50;;;;;;;9.98;8.98;;;22.10;99.90;;;;;;5034615;28;20310;-77
2023/07/24 10:12:18;;;;;;;11.48;10.27;;;22.10;99.90;;;;;;5036547;28;20202;-75
2023/07/24 10:14:46;;;;;;;10.48;9.38;;;22.20;99.90;;;;;;5034603;28;20214;-74
2023/07/24 10:17:15;;;;;;;13.40;11.98;;;22.20;99.90;;;;;;5032443;28;20212;-74
2023/07/24 10:19:43;;;;;;;13.65;12.27;;;22.40;99.90;;;;;;5037426;28;20257;-73
2023/07/24 10:22:17;;;;;;;12.65;11.35;;;22.90;99.90;;;;;;5032405;28;20211;-75
2023/07/24 10:24:44;;;;;;;12.75;11.55;;;23.20;99.90;;;;;;5035784;28;20211;-74
2023/07/24 10:27:12;;;;;;;14.63;12.73;;;23.20;99.90;;;;;;5032504;28;20206;-73
2023/07/24 10:29:39;;;;;;;15.82;14.05;;;23.10;99.90;;;;;;5038025;28;20241;-74
2023/07/24 10:32:19;;;;;;;16.75;13.98;;;22.80;99.90;;;;;;5034113;28;20797;-74
2023/07/24 10:34:45;;;;;;;14.57;13.07;;;22.50;99.90;;;;;;5032816;28;20225;-74
2023/07/24 10:37:12;;;;;;;13.85;12.40;;;22.20;99.90;;;;;;5033539;28;20204;-74
2023/07/24 10:39:41;;;;;;;14.25;12.45;;;22.20;99.90;;;;;;5032626;28;20250;-74
2023/07/24 10:42:09;;;;;;;14.50;12.88;;;22.20;99.90;;;;;;5032877;28;20219;-73
2023/07/24 10:44:36;;;;;;;18.35;14.20;;;22.10;99.90;;;;;;5035289;28;20198;-74
2023/07/24 10:47:03;;;;;;;14.50;12.88;;;22.00;99.90;;;;;;5031491;28;20200;-75
2023/07/24 10:49:32;;;;;;;16.23;14.20;;;21.80;99.90;;;;;;5035823;28;20316;-75
2023/07/24 10:51:59;;;;;;;18.13;15.25;;;21.50;99.90;;;;;;5030613;28;22512;-76
2023/07/24 10:54:26;;;;;;;14.68;13.18;;;21.20;99.90;;;;;;5034614;28;20233;-76
2023/07/24 10:56:59;;;;;;;15.98;12.43;;;21.10;99.90;;;;;;5032116;28;20318;-75
2023/07/24 10:59:37;;;;;;;12.98;11.52;;;21.00;99.90;;;;;;5030143;28;20292;-76
2023/07/24 11:02:05;;;;;;;13.52;11.90;;;21.10;99.90;;;;;;5034409;28;20226;-73
2023/07/24 11:04:34;;;;;;;11.85;10.65;;;21.20;99.90;;;;;;5032014;28;20198;-73
2023/07/24 11:07:02;;;;;;;12.43;10.85;;;21.20;99.90;;;;;;5036619;28;20665;-76
2023/07/24 11:09:40;;;;;;;11.60;10.40;;;21.30;99.90;;;;;;5033933;28;20261;-74
2023/07/24 11:12:14;;;;;;;12.30;11.05;;;21.60;99.90;;;;;;5034785;28;20214;-73
2023/07/24 11:14:53;;;;;;;12.57;11.27;;;21.90;99.90;;;;;;5034919;28;20240;-74
2023/07/24 11:17:21;;;;;;;13.02;11.48;;;22.10;99.90;;;;;;5032392;28;20612;-73
2023/07/24 11:19:49;;;;;;;12.38;11.07;;;22.40;99.90;;;;;;5030309;28;20218;-76
2023/07/24 11:22:16;;;;;;;12.25;10.80;;;22.70;99.90;;;;;;5033102;28;20294;-74
2023/07/24 11:24:44;;;;;;;12.52;10.60;;;22.90;99.90;;;;;;5033987;28;20199;-74
2023/07/24 11:27:14;;;;;;;10.60;9.50;;;22.80;99.90;;;;;;5033631;28;20294;-74
2023/07/24 11:29:41;;;;;;;10.85;9.75;;;22.70;99.90;;;;;;5031828;28;20211;-75
2023/07/24 11:32:09;;;;;;;11.77;10.50;;;22.60;99.90;;;;;;5027897;28;21101;-74
2023/07/24 11:34:36;;;;;;;11.88;10.68;;;22.50;99.90;;;;;;5033010;28;20196;-75
2023/07/24 11:37:06;;;;;;;11.10;10.00;;;22.30;99.90;;;;;;5030776;28;20344;-76
2023/07/24 11:39:33;;;;;;;13.32;11.80;;;22.20;99.90;;;;;;5032657;28;20254;-74
2023/07/24 11:42:02;;;;;;;13.85;11.63;;;22.10;99.90;;;;;;5029083;28;20203;-73
2023/07/24 11:44:29;;;;;;;12.32;11.05;;;21.80;99.90;;;;;;5033335;28;20234;-76
2023/07/24 11:47:02;;;;;;;11.35;10.15;;;21.60;99.90;;;;;;5035275;28;20190;-74
2023/07/24 11:49:31;;;;;;;11.38;10.13;;;21.70;99.90;;;;;;5032182;28;20281;-75
2023/07/24 11:52:02;;;;;;;13.93;12.52;;;22.00;99.90;;;;;;5031277;28;20269;-76
2023/07/24 11:54:30;;;;;;;12.63;11.32;;;22.30;99.90;;;;;;5032409;28;20853;-74
2023/07/24 11:56:57;;;;;;;12.63;11.00;;;23.00;99.90;;;;;;5031525;28;20241;-74
2023/07/24 11:59:26;;;;;;;13.55;11.45;;;23.50;99.90;;;;;;5029933;28;20207;-75
2023/07/24 12:01:53;;;;;;;12.95;11.63;;;23.70;99.90;;;;;;5028099;28;20725;-74
2023/07/24 12:04:20;;;;;;;12.90;11.60;;;23.70;99.90;;;;;;5030841;28;20199;-74
2023/07/24 12:06:47;;;;;;;13.30;11.93;;;23.50;99.90;;;;;;5029560;28;20191;-74
2023/07/24 12:09:14;;;;;;;13.15;11.82;;;23.30;99.90;;;;;;5030007;28;20294;-75
2023/07/24 12:11:44;;;;;;;13.07;11.35;;;23.10;99.90;;;;;;5030584;28;20200;-74
2023/07/24 12:14:11;;;;;;;11.77;9.88;;;23.00;99.90;;;;;;5032295;28;20750;-74
2023/07/24 12:16:39;;;;;;;11.15;9.93;;;22.90;99.90;;;;;;5031508;28;20207;-75
2023/07/24 12:19:06;;;;;;;11.18;9.80;;;22.80;99.90;;;;;;5028810;28;20198;-74
2023/07/24 12:21:33;;;;;;;11.05;10.05;;;22.50;99.90;;;;;;5031400;28;20216;-74
2023/07/24 12:24:00;;;;;;;11.30;10.20;;;22.30;99.90;;;;;;5026628;28;20207;-74
2023/07/24 12:26:27;;;;;;;12.57;10.23;;;22.20;99.90;;;;;;5026230;28;20267;-75
2023/07/24 12:28:56;;;;;;;13.77;10.10;;;22.20;99.90;;;;;;5027293;28;20265;-75
2023/07/24 12:31:23;;;;;;;10.73;9.35;;;22.10;99.90;;;;;;5028195;28;20318;-76
2023/07/24 12:33:51;;;;;;;11.25;9.77;;;22.00;99.90;;;;;;5026831;28;20233;-75
2023/07/24 12:36:18;;;;;;;9.95;8.73;;;22.00;99.90;;;;;;5030087;28;20250;-75
2023/07/24 12:38:45;;;;;;;10.88;9.57;;;21.90;99.90;;;;;;5028028;28;20333;-74
2023/07/24 12:41:12;;;;;;;11.88;10.68;;;21.90;99.90;;;;;;5032302;28;20589;-74
2023/07/24 12:43:39;;;;;;;12.98;11.00;;;21.80;99.90;;;;;;5027785;28;20242;-75
2023/07/24 12:46:07;;;;;;;15.57;13.93;;;21.60;99.90;;;;;;5033084;28;20238;-73
2023/07/24 12:48:35;;;;;;;17.20;15.48;;;21.40;99.90;;;;;;5031661;28;20287;-74